createdAt,value
2022-08-02T00:00:09.424Z,16.38
2022-08-02T00:00:38.579Z,16.38
2022-08-02T00:01:12.132Z,16.50
2022-08-02T00:01:37.919Z,16.50
2022-08-02T00:01:58.680Z,16.50
2022-08-02T00:02:31.402Z,16.61
2022-08-02T00:03:03.221Z,16.61
2022-08-02T00:03:35.224Z,16.61
2022-08-02T00:04:09.586Z,16.61
2022-08-02T00:04:39.043Z,16.72
2022-08-02T00:05:11.326Z,16.72
2022-08-02T00:05:36.714Z,16.72
2022-08-02T00:06:00.471Z,16.72
2022-08-02T00:06:33.294Z,16.72
2022-08-02T00:07:03.246Z,16.72
2022-08-02T00:07:39.139Z,16.72
2022-08-02T00:08:07.509Z,16.72
2022-08-02T00:08:40.764Z,16.72
2022-08-02T00:09:11.410Z,16.72
2022-08-02T00:09:37.429Z,16.72
2022-08-02T00:10:00.104Z,16.61
2022-08-02T00:10:32.069Z,16.61
2022-08-02T00:11:03.551Z,16.61
2022-08-02T00:11:34.709Z,16.61
2022-08-02T00:12:06.763Z,16.61
2022-08-02T00:12:38.790Z,16.61
2022-08-02T00:13:11.129Z,16.61
2022-08-02T00:13:39.326Z,16.50
2022-08-02T00:13:58.463Z,16.50
2022-08-02T00:14:30.815Z,16.50
2022-08-02T00:15:05.334Z,16.50
2022-08-02T00:15:34.569Z,16.50
2022-08-02T00:16:06.534Z,16.50
2022-08-02T00:16:38.741Z,16.50
2022-08-02T00:17:10.927Z,16.50
2022-08-02T00:17:36.929Z,16.50
2022-08-02T00:17:59.093Z,16.50
2022-08-02T00:18:30.498Z,16.50
2022-08-02T00:19:02.964Z,16.61
2022-08-02T00:19:34.603Z,16.61
2022-08-02T00:20:08.453Z,16.61
2022-08-02T00:20:38.620Z,16.61
2022-08-02T00:21:12.943Z,16.61
2022-08-02T00:21:37.321Z,16.61
2022-08-02T00:21:59.396Z,16.61
2022-08-02T00:22:32.502Z,16.61
2022-08-02T00:23:03.679Z,16.61
2022-08-02T00:24:03.535Z,16.61
2022-08-02T00:24:39.928Z,16.61
2022-08-02T00:25:12.763Z,16.61
2022-08-02T00:25:37.426Z,16.61
2022-08-02T00:25:59.534Z,16.61
2022-08-02T00:26:30.447Z,16.61
2022-08-02T00:27:03.050Z,16.61
2022-08-02T00:27:38.725Z,16.50
2022-08-02T00:28:08.278Z,16.50
2022-08-02T00:28:38.736Z,16.50
2022-08-02T00:29:10.655Z,16.50
2022-08-02T00:29:42.433Z,16.50
2022-08-02T00:29:58.507Z,16.50
2022-08-02T00:30:31.316Z,16.50
2022-08-02T00:31:03.139Z,16.50
2022-08-02T00:31:36.843Z,16.38
2022-08-02T00:32:06.829Z,16.38
2022-08-02T00:32:43.519Z,16.38
2022-08-02T00:33:10.532Z,16.38
2022-08-02T00:34:26.818Z,16.38
2022-08-02T00:34:37.993Z,16.27
2022-08-02T00:35:04.427Z,16.27
2022-08-02T00:35:35.910Z,16.27
2022-08-02T00:36:07.853Z,16.27
2022-08-02T00:36:42.727Z,16.27
2022-08-02T00:37:11.344Z,16.27
2022-08-02T00:37:39.034Z,16.27
2022-08-02T00:37:58.791Z,16.27
2022-08-02T00:38:32.441Z,16.27
2022-08-02T00:39:03.231Z,16.27
2022-08-02T00:39:35.861Z,16.27
2022-08-02T00:40:07.075Z,16.22
2022-08-02T00:40:38.747Z,16.22
2022-08-02T00:41:11.969Z,16.22
2022-08-02T00:41:36.808Z,16.22
2022-08-02T00:41:59.533Z,16.22
2022-08-02T00:42:33.856Z,16.22
2022-08-02T00:43:03.627Z,16.11
2022-08-02T00:43:35.787Z,16.11
2022-08-02T00:44:06.664Z,16.11
2022-08-02T00:44:38.534Z,16.11
2022-08-02T00:45:11.838Z,16.11
2022-08-02T00:46:03.003Z,16.00
2022-08-02T00:46:15.600Z,16.00
2022-08-02T00:46:36.817Z,16.00
2022-08-02T00:47:03.204Z,16.00
2022-08-02T00:47:36.406Z,16.00
2022-08-02T00:48:06.536Z,16.00
2022-08-02T00:48:41.409Z,16.00
2022-08-02T00:49:11.065Z,16.00
2022-08-02T00:49:37.344Z,16.00
2022-08-02T00:49:58.400Z,16.00
2022-08-02T00:50:30.801Z,16.00
2022-08-02T00:51:02.850Z,16.00
2022-08-02T00:51:34.421Z,16.00
2022-08-02T00:52:06.426Z,15.88
2022-08-02T00:52:38.554Z,15.88
2022-08-02T00:53:10.559Z,15.88
2022-08-02T00:53:36.740Z,15.88
2022-08-02T00:53:58.540Z,15.88
2022-08-02T00:54:30.568Z,15.88
2022-08-02T00:55:03.923Z,15.88
2022-08-02T00:55:34.817Z,15.88
2022-08-02T00:56:06.358Z,15.88
2022-08-02T00:56:38.362Z,15.88
2022-08-02T00:57:10.467Z,16.00
2022-08-02T00:57:36.704Z,16.00
2022-08-02T00:57:58.581Z,16.00
2022-08-02T00:58:30.304Z,16.00
2022-08-02T00:59:02.788Z,16.00
2022-08-02T00:59:34.324Z,16.00
2022-08-02T01:00:08.508Z,16.00
2022-08-02T01:00:38.491Z,16.11
2022-08-02T01:01:12.330Z,16.11
2022-08-02T01:01:37.008Z,16.11
2022-08-02T01:01:58.548Z,16.11
2022-08-02T01:02:30.355Z,16.11
2022-08-02T01:03:03.941Z,16.11
2022-08-02T01:03:34.291Z,16.11
2022-08-02T01:04:06.353Z,16.22
2022-08-02T01:04:38.764Z,16.22
2022-08-02T01:05:10.866Z,16.22
2022-08-02T01:06:10.226Z,16.22
2022-08-02T01:06:14.583Z,16.22
2022-08-02T01:06:36.730Z,16.22
2022-08-02T01:07:02.860Z,16.22
2022-08-02T01:07:34.546Z,16.22
2022-08-02T01:08:06.533Z,16.22
2022-08-02T01:08:38.404Z,16.22
2022-08-02T01:09:10.476Z,16.22
2022-08-02T01:09:37.602Z,16.22
2022-08-02T01:09:58.399Z,16.11
2022-08-02T01:10:31.598Z,16.11
2022-08-02T01:11:04.137Z,16.11
2022-08-02T01:11:35.690Z,16.11
2022-08-02T01:12:06.968Z,16.00
2022-08-02T01:12:39.532Z,16.00
2022-08-02T01:13:11.693Z,16.00
2022-08-02T01:13:37.450Z,16.00
2022-08-02T01:13:58.726Z,15.88
2022-08-02T01:14:30.692Z,15.88
2022-08-02T01:15:05.449Z,15.88
2022-08-02T01:15:36.942Z,15.88
2022-08-02T01:16:07.312Z,15.77
2022-08-02T01:16:38.601Z,15.77
2022-08-02T01:17:10.600Z,15.77
2022-08-02T01:17:37.626Z,15.77
2022-08-02T01:18:01.176Z,15.77
2022-08-02T01:18:30.807Z,15.77
2022-08-02T01:19:04.055Z,15.72
2022-08-02T01:19:34.730Z,15.72
2022-08-02T01:20:08.338Z,15.72
2022-08-02T01:20:38.914Z,15.72
2022-08-02T01:21:11.033Z,15.72
2022-08-02T01:21:37.374Z,15.72
2022-08-02T01:22:00.459Z,15.72
2022-08-02T01:22:58.504Z,15.72
2022-08-02T01:23:18.552Z,15.72
2022-08-02T01:23:39.863Z,15.72
2022-08-02T01:24:06.357Z,15.77
2022-08-02T01:24:38.790Z,15.77
2022-08-02T01:25:10.741Z,15.77
2022-08-02T01:25:36.821Z,15.77
2022-08-02T01:25:58.651Z,15.88
2022-08-02T01:26:30.353Z,15.88
2022-08-02T01:27:03.093Z,15.88
2022-08-02T01:27:35.645Z,16.00
2022-08-02T01:28:06.436Z,16.00
2022-08-02T01:28:38.653Z,16.11
2022-08-02T01:29:10.445Z,16.11
2022-08-02T01:29:38.745Z,16.11
2022-08-02T01:29:58.323Z,16.22
2022-08-02T01:30:31.029Z,16.22
2022-08-02T01:31:02.739Z,16.22
2022-08-02T01:31:35.042Z,16.27
2022-08-02T01:32:06.418Z,16.27
2022-08-02T01:32:38.430Z,16.27
2022-08-02T01:33:10.375Z,16.27
2022-08-02T01:33:38.061Z,16.22
2022-08-02T01:33:58.465Z,16.22
2022-08-02T01:34:31.248Z,16.22
2022-08-02T01:35:04.686Z,16.11
2022-08-02T01:35:50.631Z,16.11
2022-08-02T01:36:06.292Z,16.00
2022-08-02T01:36:38.607Z,15.88
2022-08-02T01:37:10.400Z,15.88
2022-08-02T01:37:36.816Z,15.88
2022-08-02T01:37:58.535Z,15.77
2022-08-02T01:38:31.264Z,15.72
2022-08-02T01:39:02.742Z,15.72
2022-08-02T01:39:34.270Z,15.72
2022-08-02T01:40:07.360Z,15.72
2022-08-02T01:40:38.863Z,15.72
2022-08-02T01:41:10.343Z,15.72
2022-08-02T01:41:36.773Z,15.72
2022-08-02T01:41:58.968Z,15.72
2022-08-02T01:42:31.277Z,15.61
2022-08-02T01:43:03.007Z,15.61
2022-08-02T01:43:35.321Z,15.61
2022-08-02T01:44:06.314Z,15.61
2022-08-02T01:44:38.429Z,15.61
2022-08-02T01:45:11.176Z,15.61
2022-08-02T01:45:36.784Z,15.61
2022-08-02T01:45:59.811Z,15.50
2022-08-02T01:46:30.289Z,15.50
2022-08-02T01:47:02.876Z,15.50
2022-08-02T01:47:35.364Z,15.50
2022-08-02T01:48:06.294Z,15.50
2022-08-02T01:48:23.088Z,15.50
2022-08-02T01:48:43.742Z,15.50
2022-08-02T01:49:10.472Z,15.38
2022-08-02T01:49:36.892Z,15.38
2022-08-02T01:49:58.794Z,15.38
2022-08-02T01:50:30.689Z,15.38
2022-08-02T01:51:02.804Z,15.38
2022-08-02T01:51:36.597Z,15.38
2022-08-02T01:52:06.311Z,15.38
2022-08-02T01:52:23.073Z,15.27
2022-08-02T01:52:53.459Z,15.27
2022-08-02T01:53:10.465Z,15.27
2022-08-02T01:53:36.900Z,15.27
2022-08-02T01:53:58.235Z,15.27
2022-08-02T01:54:30.286Z,15.27
2022-08-02T01:55:03.894Z,15.27
2022-08-02T01:55:56.771Z,15.27
2022-08-02T01:56:06.312Z,15.27
2022-08-02T01:56:24.728Z,15.27
2022-08-02T01:56:43.790Z,15.27
2022-08-02T01:57:11.156Z,15.27
2022-08-02T01:57:39.198Z,15.27
2022-08-02T01:57:58.356Z,15.22
2022-08-02T01:58:30.397Z,15.22
2022-08-02T01:59:02.970Z,15.22
2022-08-02T01:59:34.663Z,15.22
2022-08-02T02:00:08.515Z,15.22
2022-08-02T02:00:23.036Z,15.22
2022-08-02T02:00:44.653Z,15.22
2022-08-02T02:01:10.376Z,15.22
2022-08-02T02:01:37.360Z,15.22
2022-08-02T02:01:58.335Z,15.22
2022-08-02T02:02:31.865Z,15.22
2022-08-02T02:03:03.006Z,15.22
2022-08-02T02:03:35.301Z,15.22
2022-08-02T02:04:06.326Z,15.22
2022-08-02T02:04:22.965Z,15.11
2022-08-02T02:04:43.755Z,15.11
2022-08-02T02:05:10.774Z,15.11
2022-08-02T02:05:36.798Z,15.11
2022-08-02T02:05:58.585Z,15.11
2022-08-02T02:06:30.474Z,15.11
2022-08-02T02:07:03.021Z,15.00
2022-08-02T02:07:35.332Z,15.00
2022-08-02T02:08:06.329Z,15.00
2022-08-02T02:08:26.929Z,15.00
2022-08-02T02:08:43.887Z,15.00
2022-08-02T02:09:10.339Z,15.00
2022-08-02T02:09:37.458Z,15.00
2022-08-02T02:09:58.885Z,15.00
2022-08-02T02:10:30.740Z,15.00
2022-08-02T02:12:06.355Z,15.00
2022-08-02T02:12:23.688Z,15.00
2022-08-02T02:12:43.710Z,15.00
2022-08-02T02:13:10.333Z,15.00
2022-08-02T02:13:37.576Z,15.00
2022-08-02T02:13:58.398Z,15.00
2022-08-02T02:14:30.234Z,15.00
2022-08-02T02:15:05.407Z,15.00
2022-08-02T02:15:34.305Z,15.00
2022-08-02T02:16:06.308Z,15.00
2022-08-02T02:16:22.962Z,15.00
2022-08-02T02:16:43.703Z,15.00
2022-08-02T02:17:52.791Z,15.00
2022-08-02T02:18:31.785Z,15.00
2022-08-02T02:19:05.234Z,15.00
2022-08-02T02:19:34.891Z,15.00
2022-08-02T02:20:08.446Z,15.00
2022-08-02T02:20:38.892Z,15.00
2022-08-02T02:21:11.105Z,15.00
2022-08-02T02:21:36.994Z,15.00
2022-08-02T02:21:59.629Z,15.00
2022-08-02T02:22:30.752Z,15.00
2022-08-02T02:23:03.902Z,15.00
2022-08-02T02:23:37.299Z,14.88
2022-08-02T02:24:07.315Z,14.88
2022-08-02T02:24:38.502Z,14.88
2022-08-02T02:25:12.015Z,14.88
2022-08-02T02:25:41.833Z,14.88
2022-08-02T02:26:00.301Z,14.77
2022-08-02T02:26:31.532Z,14.77
2022-08-02T02:27:09.191Z,14.77
2022-08-02T02:27:34.491Z,14.72
2022-08-02T02:28:08.459Z,14.72
2022-08-02T02:28:38.609Z,14.72
2022-08-02T02:29:10.423Z,14.72
2022-08-02T02:29:36.823Z,14.61
2022-08-02T02:29:58.342Z,14.61
2022-08-02T02:30:31.143Z,14.61
2022-08-02T02:31:03.145Z,14.61
2022-08-02T02:31:34.255Z,14.61
2022-08-02T02:32:06.611Z,14.50
2022-08-02T02:32:23.371Z,14.50
2022-08-02T02:32:43.707Z,14.50
2022-08-02T02:33:10.305Z,14.50
2022-08-02T02:33:36.852Z,14.50
2022-08-02T02:33:58.374Z,14.50
2022-08-02T02:34:30.393Z,14.38
2022-08-02T02:35:04.073Z,14.38
2022-08-02T02:35:34.266Z,14.38
2022-08-02T02:36:06.554Z,14.38
2022-08-02T02:36:23.601Z,14.38
2022-08-02T02:36:43.755Z,14.38
2022-08-02T02:37:10.411Z,14.38
2022-08-02T02:37:37.980Z,14.38
2022-08-02T02:37:58.330Z,14.38
2022-08-02T02:38:30.298Z,14.38
2022-08-02T02:39:02.866Z,14.38
2022-08-02T02:39:36.791Z,14.38
2022-08-02T02:40:06.901Z,14.38
2022-08-02T02:40:23.751Z,14.38
2022-08-02T02:40:44.150Z,14.38
2022-08-02T02:41:10.333Z,14.38
2022-08-02T02:41:37.908Z,14.38
2022-08-02T02:41:59.118Z,14.38
2022-08-02T02:42:30.235Z,14.38
2022-08-02T02:43:02.902Z,14.38
2022-08-02T02:43:34.306Z,14.38
2022-08-02T02:44:07.350Z,14.38
2022-08-02T02:44:38.365Z,14.38
2022-08-02T02:45:11.097Z,14.38
2022-08-02T02:45:36.908Z,14.38
2022-08-02T02:45:58.650Z,14.38
2022-08-02T02:46:30.300Z,14.38
2022-08-02T02:47:02.932Z,14.38
2022-08-02T02:47:41.093Z,14.38
2022-08-02T02:48:06.406Z,14.38
2022-08-02T02:48:23.062Z,14.38
2022-08-02T02:48:43.873Z,14.38
2022-08-02T02:49:10.427Z,14.38
2022-08-02T02:49:38.164Z,14.38
2022-08-02T02:49:58.338Z,14.38
2022-08-02T02:50:30.821Z,14.38
2022-08-02T02:51:02.850Z,14.38
2022-08-02T02:51:36.424Z,14.38
2022-08-02T02:52:06.358Z,14.50
2022-08-02T02:52:23.061Z,14.50
2022-08-02T02:52:43.673Z,14.50
2022-08-02T02:53:11.147Z,14.50
2022-08-02T02:54:31.167Z,14.50
2022-08-02T02:54:37.666Z,14.61
2022-08-02T02:55:04.120Z,14.61
2022-08-02T02:55:34.362Z,14.72
2022-08-02T02:56:06.431Z,14.72
2022-08-02T02:56:23.447Z,14.72
2022-08-02T02:56:43.751Z,14.72
2022-08-02T02:57:10.535Z,14.77
2022-08-02T02:57:36.861Z,14.77
2022-08-02T02:57:58.254Z,14.77
2022-08-02T02:58:30.287Z,14.77
2022-08-02T02:59:02.958Z,14.77
2022-08-02T02:59:35.405Z,14.77
2022-08-02T03:00:09.929Z,14.77
2022-08-02T03:00:38.229Z,14.77
2022-08-02T03:01:10.643Z,14.77
2022-08-02T03:01:57.198Z,14.77
2022-08-02T03:02:14.618Z,14.77
2022-08-02T03:02:37.627Z,14.72
2022-08-02T03:03:03.619Z,14.72
2022-08-02T03:03:34.277Z,14.72
2022-08-02T03:04:06.326Z,14.72
2022-08-02T03:04:23.114Z,14.61
2022-08-02T03:04:56.959Z,14.61
2022-08-02T03:05:10.825Z,14.61
2022-08-02T03:05:36.760Z,14.61
2022-08-02T03:05:58.613Z,14.61
2022-08-02T03:06:30.381Z,14.50
2022-08-02T03:07:02.900Z,14.50
2022-08-02T03:07:34.337Z,14.50
2022-08-02T03:08:06.317Z,14.50
2022-08-02T03:08:23.454Z,14.38
2022-08-02T03:08:44.568Z,14.38
2022-08-02T03:09:10.406Z,14.38
2022-08-02T03:09:36.818Z,14.38
2022-08-02T03:09:58.292Z,14.38
2022-08-02T03:10:30.577Z,14.27
2022-08-02T03:11:02.820Z,14.27
2022-08-02T03:11:34.220Z,14.27
2022-08-02T03:12:06.283Z,14.27
2022-08-02T03:12:25.901Z,14.27
2022-08-02T03:12:43.811Z,14.27
2022-08-02T03:13:10.420Z,14.27
2022-08-02T03:13:37.559Z,14.27
2022-08-02T03:13:58.288Z,14.27
2022-08-02T03:14:30.534Z,14.27
2022-08-02T03:15:04.591Z,14.27
2022-08-02T03:15:34.249Z,14.27
2022-08-02T03:16:07.261Z,14.27
2022-08-02T03:16:39.077Z,14.27
2022-08-02T03:17:10.344Z,14.27
2022-08-02T03:17:36.782Z,14.27
2022-08-02T03:17:58.247Z,14.27
2022-08-02T03:18:30.407Z,14.27
2022-08-02T03:19:04.475Z,14.22
2022-08-02T03:19:34.304Z,14.22
2022-08-02T03:20:07.371Z,14.22
2022-08-02T03:20:24.339Z,14.22
2022-08-02T03:20:45.309Z,14.22
2022-08-02T03:21:10.269Z,14.22
2022-08-02T03:21:37.827Z,14.22
2022-08-02T03:21:59.327Z,14.22
2022-08-02T03:22:30.275Z,14.22
2022-08-02T03:23:02.868Z,14.22
2022-08-02T03:23:36.330Z,14.22
2022-08-02T03:24:06.255Z,14.22
2022-08-02T03:24:27.997Z,14.22
2022-08-02T03:24:45.630Z,14.22
2022-08-02T03:25:11.872Z,14.22
2022-08-02T03:25:38.277Z,14.22
2022-08-02T03:25:58.992Z,14.22
2022-08-02T03:26:32.262Z,14.22
2022-08-02T03:27:04.179Z,14.22
2022-08-02T03:27:35.169Z,14.22
2022-08-02T03:28:06.418Z,14.22
2022-08-02T03:28:38.993Z,14.22
2022-08-02T03:29:11.266Z,14.22
2022-08-02T03:29:37.830Z,14.22
2022-08-02T03:29:58.585Z,14.22
2022-08-02T03:30:32.431Z,14.22
2022-08-02T03:31:04.939Z,14.22
2022-08-02T03:31:34.654Z,14.22
2022-08-02T03:32:06.723Z,14.22
2022-08-02T03:32:38.467Z,14.22
2022-08-02T03:33:11.078Z,14.11
2022-08-02T03:33:37.151Z,14.11
2022-08-02T03:33:59.026Z,14.11
2022-08-02T03:34:32.594Z,14.11
2022-08-02T03:35:04.324Z,14.00
2022-08-02T03:35:36.136Z,14.00
2022-08-02T03:36:06.963Z,14.00
2022-08-02T03:36:38.812Z,14.00
2022-08-02T03:37:10.570Z,14.00
2022-08-02T03:37:37.124Z,14.00
2022-08-02T03:37:58.511Z,14.00
2022-08-02T03:38:30.579Z,14.00
2022-08-02T03:39:04.114Z,14.00
2022-08-02T03:39:35.448Z,14.00
2022-08-02T03:40:06.738Z,14.00
2022-08-02T03:40:23.097Z,14.00
2022-08-02T03:40:44.212Z,14.00
2022-08-02T03:41:10.463Z,14.00
2022-08-02T03:41:36.894Z,14.00
2022-08-02T03:41:58.459Z,14.11
2022-08-02T03:42:30.383Z,14.11
2022-08-02T03:43:02.935Z,14.11
2022-08-02T03:43:34.405Z,14.11
2022-08-02T03:44:08.370Z,14.22
2022-08-02T03:44:39.591Z,14.22
2022-08-02T03:45:11.409Z,14.22
2022-08-02T03:45:37.062Z,14.27
2022-08-02T03:46:02.445Z,14.27
2022-08-02T03:46:30.855Z,14.27
2022-08-02T03:47:03.433Z,14.27
2022-08-02T03:47:35.524Z,14.27
2022-08-02T03:48:34.831Z,14.27
2022-08-02T03:48:38.991Z,14.27
2022-08-02T03:49:12.368Z,14.27
2022-08-02T03:49:38.268Z,14.27
2022-08-02T03:49:59.176Z,14.27
2022-08-02T03:50:32.168Z,14.27
2022-08-02T03:51:03.034Z,14.27
2022-08-02T03:51:37.213Z,14.27
2022-08-02T03:52:06.544Z,14.27
2022-08-02T03:52:38.865Z,14.38
2022-08-02T03:53:19.873Z,14.38
2022-08-02T03:53:38.905Z,14.38
2022-08-02T03:53:59.242Z,14.38
2022-08-02T03:54:34.642Z,14.38
2022-08-02T03:55:05.492Z,14.38
2022-08-02T03:55:35.206Z,14.38
2022-08-02T03:56:06.524Z,14.38
2022-08-02T03:56:24.579Z,14.38
2022-08-02T03:56:45.947Z,14.38
2022-08-02T03:57:10.653Z,14.38
2022-08-02T03:57:37.208Z,14.38
2022-08-02T03:57:59.175Z,14.38
2022-08-02T03:58:30.626Z,14.38
2022-08-02T03:59:03.689Z,14.38
2022-08-02T03:59:36.756Z,14.38
2022-08-02T04:00:09.051Z,14.38
2022-08-02T04:00:41.014Z,14.27
2022-08-02T04:01:11.949Z,14.27
2022-08-02T04:01:37.225Z,14.27
2022-08-02T04:01:59.076Z,14.27
2022-08-02T04:02:31.458Z,14.27
2022-08-02T04:03:03.265Z,14.27
2022-08-02T04:03:35.496Z,14.27
2022-08-02T04:04:07.874Z,14.27
2022-08-02T04:04:39.942Z,14.27
2022-08-02T04:05:11.139Z,14.27
2022-08-02T04:05:37.064Z,14.27
2022-08-02T04:06:15.869Z,14.27
2022-08-02T04:06:40.174Z,14.27
2022-08-02T04:07:03.128Z,14.38
2022-08-02T04:08:33.692Z,14.38
2022-08-02T04:08:45.067Z,14.38
2022-08-02T04:09:10.933Z,14.38
2022-08-02T04:09:37.044Z,14.38
2022-08-02T04:09:59.855Z,14.38
2022-08-02T04:10:31.070Z,14.38
2022-08-02T04:11:03.569Z,14.38
2022-08-02T04:11:34.546Z,14.50
2022-08-02T04:12:07.042Z,14.50
2022-08-02T04:12:39.075Z,14.50
2022-08-02T04:13:11.482Z,14.50
2022-08-02T04:13:39.128Z,14.50
2022-08-02T04:13:59.599Z,14.50
2022-08-02T04:14:35.641Z,14.50
2022-08-02T04:15:05.115Z,14.38
2022-08-02T04:15:34.831Z,14.38
2022-08-02T04:16:06.831Z,14.38
2022-08-02T04:16:39.091Z,14.38
2022-08-02T04:17:10.584Z,14.38
2022-08-02T04:17:37.655Z,14.38
2022-08-02T04:17:58.970Z,14.38
2022-08-02T04:18:30.488Z,14.38
2022-08-02T04:19:02.978Z,14.38
2022-08-02T04:19:36.185Z,14.38
2022-08-02T04:20:07.566Z,14.38
2022-08-02T04:20:38.484Z,14.38
2022-08-02T04:21:10.516Z,14.38
2022-08-02T04:21:50.301Z,14.38
2022-08-02T04:21:59.261Z,14.50
2022-08-02T04:22:30.369Z,14.50
2022-08-02T04:23:03.653Z,14.50
2022-08-02T04:23:36.946Z,14.50
2022-08-02T04:24:07.873Z,14.61
2022-08-02T04:24:38.922Z,14.61
2022-08-02T04:25:17.359Z,14.61
2022-08-02T04:25:40.647Z,14.61
2022-08-02T04:26:00.461Z,14.72
2022-08-02T04:26:31.251Z,14.72
2022-08-02T04:27:19.816Z,14.77
2022-08-02T04:28:27.525Z,14.77
2022-08-02T04:28:44.679Z,14.88
2022-08-02T04:29:11.095Z,14.88
2022-08-02T04:29:38.372Z,14.88
2022-08-02T04:29:59.463Z,14.88
2022-08-02T04:30:31.925Z,15.00
2022-08-02T04:31:03.154Z,15.00
2022-08-02T04:31:35.159Z,15.11
2022-08-02T04:32:07.016Z,15.11
2022-08-02T04:32:39.925Z,15.11
2022-08-02T04:33:10.895Z,15.22
2022-08-02T04:33:37.325Z,15.22
2022-08-02T04:34:15.415Z,15.27
2022-08-02T04:34:37.382Z,15.27
2022-08-02T04:35:19.284Z,15.38
2022-08-02T04:35:35.038Z,15.38
2022-08-02T04:36:08.486Z,15.50
2022-08-02T04:36:39.508Z,15.61
2022-08-02T04:37:12.717Z,15.72
2022-08-02T04:37:37.967Z,15.72
2022-08-02T04:38:09.321Z,15.77
2022-08-02T04:38:32.675Z,15.88
2022-08-02T04:39:03.381Z,16.00
2022-08-02T04:39:35.007Z,16.11
2022-08-02T04:40:08.296Z,16.22
2022-08-02T04:40:38.935Z,16.22
2022-08-02T04:41:12.185Z,16.22
2022-08-02T04:41:37.683Z,16.27
2022-08-02T04:41:59.282Z,16.27
2022-08-02T04:42:31.340Z,16.27
2022-08-02T04:43:05.363Z,16.27
2022-08-02T04:43:34.862Z,16.27
2022-08-02T04:44:06.423Z,16.27
2022-08-02T04:44:24.004Z,16.27
2022-08-02T04:44:44.030Z,16.22
2022-08-02T04:45:11.751Z,16.22
2022-08-02T04:45:37.162Z,16.22
2022-08-02T04:46:00.355Z,16.22
2022-08-02T04:46:31.262Z,16.27
2022-08-02T04:47:06.683Z,16.27
2022-08-02T04:48:03.657Z,16.27
2022-08-02T04:48:23.612Z,16.27
2022-08-02T04:48:44.795Z,16.27
2022-08-02T04:49:12.126Z,16.38
2022-08-02T04:49:37.148Z,16.38
2022-08-02T04:49:58.737Z,16.38
2022-08-02T04:50:32.032Z,16.38
2022-08-02T04:51:03.565Z,16.38
2022-08-02T04:51:38.264Z,16.38
2022-08-02T04:52:07.672Z,16.38
2022-08-02T04:52:44.090Z,16.38
2022-08-02T04:53:12.005Z,16.38
2022-08-02T04:53:37.302Z,16.38
2022-08-02T04:54:03.651Z,16.38
2022-08-02T04:54:30.541Z,16.38
2022-08-02T04:55:04.133Z,16.38
2022-08-02T04:55:35.170Z,16.50
2022-08-02T04:56:07.463Z,16.50
2022-08-02T04:56:39.464Z,16.50
2022-08-02T04:57:11.331Z,16.50
2022-08-02T04:57:37.050Z,16.50
2022-08-02T04:58:03.786Z,16.50
2022-08-02T04:58:40.302Z,16.50
2022-08-02T04:59:04.169Z,16.50
2022-08-02T04:59:34.764Z,16.50
2022-08-02T05:00:08.829Z,16.50
2022-08-02T05:00:39.652Z,16.38
2022-08-02T05:01:12.558Z,16.38
2022-08-02T05:01:37.397Z,16.38
2022-08-02T05:01:59.176Z,16.27
2022-08-02T05:02:30.471Z,16.27
2022-08-02T05:03:03.423Z,16.27
2022-08-02T05:03:34.363Z,16.22
2022-08-02T05:04:06.572Z,16.22
2022-08-02T05:04:39.617Z,16.11
2022-08-02T05:05:10.711Z,16.11
2022-08-02T05:05:37.054Z,16.11
2022-08-02T05:05:59.269Z,16.11
2022-08-02T05:06:30.351Z,16.11
2022-08-02T05:07:03.814Z,16.11
2022-08-02T05:07:36.104Z,16.11
2022-08-02T05:08:06.370Z,16.11
2022-08-02T05:08:38.339Z,16.11
2022-08-02T05:09:10.396Z,16.11
2022-08-02T05:09:37.086Z,16.11
2022-08-02T05:09:58.475Z,16.11
2022-08-02T05:10:30.873Z,16.22
2022-08-02T05:11:03.200Z,16.22
2022-08-02T05:11:36.110Z,16.22
2022-08-02T05:12:06.628Z,16.22
2022-08-02T05:12:38.515Z,16.22
2022-08-02T05:13:11.873Z,16.22
2022-08-02T05:13:58.116Z,16.22
2022-08-02T05:14:14.510Z,16.22
2022-08-02T05:14:37.046Z,16.22
2022-08-02T05:15:05.278Z,16.22
2022-08-02T05:15:34.984Z,16.22
2022-08-02T05:16:07.746Z,16.22
2022-08-02T05:16:38.949Z,16.11
2022-08-02T05:17:10.529Z,16.11
2022-08-02T05:17:37.231Z,16.11
2022-08-02T05:17:58.534Z,16.11
2022-08-02T05:18:31.477Z,16.11
2022-08-02T05:19:03.385Z,16.11
2022-08-02T05:19:35.264Z,16.11
2022-08-02T05:20:08.322Z,16.11
2022-08-02T05:20:38.646Z,16.11
2022-08-02T05:21:10.568Z,16.11
2022-08-02T05:21:37.289Z,16.11
2022-08-02T05:21:58.521Z,16.11
2022-08-02T05:22:30.434Z,16.11
2022-08-02T05:23:03.263Z,16.11
2022-08-02T05:23:34.517Z,16.11
2022-08-02T05:24:06.488Z,16.22
2022-08-02T05:24:38.586Z,16.22
2022-08-02T05:25:10.831Z,16.22
2022-08-02T05:25:38.380Z,16.22
2022-08-02T05:26:00.490Z,16.22
2022-08-02T05:26:30.687Z,16.27
2022-08-02T05:27:16.292Z,16.27
2022-08-02T05:27:34.516Z,16.27
2022-08-02T05:28:11.324Z,16.27
2022-08-02T05:28:38.793Z,16.27
2022-08-02T05:29:10.575Z,16.27
2022-08-02T05:29:37.226Z,16.27
2022-08-02T05:30:01.992Z,16.27
2022-08-02T05:30:30.562Z,16.27
2022-08-02T05:31:03.397Z,16.22
2022-08-02T05:31:35.388Z,16.22
2022-08-02T05:32:06.519Z,16.22
2022-08-02T05:32:38.898Z,16.22
2022-08-02T05:33:10.544Z,16.22
2022-08-02T05:33:37.282Z,16.22
2022-08-02T05:33:58.544Z,16.22
2022-08-02T05:34:30.472Z,16.22
2022-08-02T05:35:04.731Z,16.22
2022-08-02T05:35:34.457Z,16.22
2022-08-02T05:36:06.549Z,16.22
2022-08-02T05:36:38.592Z,16.27
2022-08-02T05:37:10.658Z,16.27
2022-08-02T05:37:37.261Z,16.27
2022-08-02T05:37:58.992Z,16.27
2022-08-02T05:38:31.302Z,16.27
2022-08-02T05:39:05.891Z,16.38
2022-08-02T05:39:36.146Z,16.38
2022-08-02T05:40:12.919Z,16.38
2022-08-02T05:40:54.533Z,16.38
2022-08-02T05:41:11.370Z,16.38
2022-08-02T05:41:37.403Z,16.50
2022-08-02T05:41:58.633Z,16.50
2022-08-02T05:42:31.513Z,16.50
2022-08-02T05:43:03.178Z,16.38
2022-08-02T05:43:34.594Z,16.38
2022-08-02T05:44:06.557Z,16.38
2022-08-02T05:44:38.799Z,16.27
2022-08-02T05:45:11.431Z,16.27
2022-08-02T05:45:38.051Z,16.27
2022-08-02T05:45:59.872Z,16.27
2022-08-02T05:46:30.474Z,16.27
2022-08-02T05:47:03.286Z,16.27
2022-08-02T05:47:34.524Z,16.27
2022-08-02T05:48:07.559Z,16.27
2022-08-02T05:48:38.472Z,16.27
2022-08-02T05:49:11.469Z,16.27
2022-08-02T05:49:37.494Z,16.27
2022-08-02T05:49:59.985Z,16.27
2022-08-02T05:50:30.879Z,16.27
2022-08-02T05:51:03.310Z,16.27
2022-08-02T05:51:34.464Z,16.27
2022-08-02T05:52:06.557Z,16.27
2022-08-02T05:52:38.676Z,16.27
2022-08-02T05:53:10.564Z,16.22
2022-08-02T05:53:37.258Z,16.22
2022-08-02T05:53:59.438Z,16.27
2022-08-02T05:54:30.721Z,16.27
2022-08-02T05:55:05.156Z,16.27
2022-08-02T05:55:34.464Z,16.27
2022-08-02T05:56:08.699Z,16.27
2022-08-02T05:56:39.468Z,16.27
2022-08-02T05:57:10.877Z,16.27
2022-08-02T05:57:43.505Z,16.27
2022-08-02T05:57:58.592Z,16.27
2022-08-02T05:58:30.851Z,16.38
2022-08-02T05:59:03.205Z,16.38
2022-08-02T05:59:34.580Z,16.38
2022-08-02T06:00:08.579Z,16.38
2022-08-02T06:00:38.750Z,16.50
2022-08-02T06:01:12.728Z,16.50
2022-08-02T06:01:37.285Z,16.50
2022-08-02T06:01:58.739Z,16.61
2022-08-02T06:02:30.830Z,16.61
2022-08-02T06:03:03.323Z,16.61
2022-08-02T06:03:34.581Z,16.61
2022-08-02T06:04:06.552Z,16.61
2022-08-02T06:04:38.740Z,16.72
2022-08-02T06:05:10.937Z,16.72
2022-08-02T06:05:37.339Z,16.72
2022-08-02T06:05:59.929Z,16.72
2022-08-02T06:06:30.515Z,16.77
2022-08-02T06:07:03.195Z,16.77
2022-08-02T06:07:35.268Z,16.88
2022-08-02T06:08:07.741Z,16.88
2022-08-02T06:08:38.468Z,17.00
2022-08-02T06:09:10.573Z,17.00
2022-08-02T06:09:37.192Z,17.00
2022-08-02T06:09:58.643Z,17.11
2022-08-02T06:10:30.953Z,17.11
2022-08-02T06:11:03.264Z,17.22
2022-08-02T06:11:35.655Z,17.22
2022-08-02T06:12:06.502Z,17.11
2022-08-02T06:12:38.425Z,17.11
2022-08-02T06:13:14.468Z,17.11
2022-08-02T06:13:37.265Z,17.11
2022-08-02T06:13:58.601Z,17.11
2022-08-02T06:14:30.843Z,17.11
2022-08-02T06:15:05.257Z,17.00
2022-08-02T06:15:35.513Z,17.00
2022-08-02T06:16:06.524Z,17.11
2022-08-02T06:16:32.612Z,17.11
2022-08-02T06:16:46.134Z,17.11
2022-08-02T06:17:10.572Z,17.11
2022-08-02T06:17:41.780Z,17.11
2022-08-02T06:17:58.965Z,17.11
2022-08-02T06:18:30.443Z,17.11
2022-08-02T06:19:03.219Z,17.22